sensor_id;sensor_type;location;lat;lon;timestamp;pressure;altitude;pressure_sealevel;temperature;humidity
73306;BME280;61530;51.158;0.880;2022-08-19T00:00:32;1010.72;;;17.6875;44.6174
73306;BME280;61530;51.158;0.880;2022-08-19T00:01:36;1010.69;;;17.75;44.2041
73306;BME280;61530;51.158;0.880;2022-08-19T00:02:38;1010.69;;;17.6875;44.9018
73306;BME280;61530;51.158;0.880;2022-08-19T00:03:41;1010.72;;;17.6875;44.8323
73306;BME280;61530;51.158;0.880;2022-08-19T00:04:46;1010.72;;;17.75;45.3208
73306;BME280;61530;51.158;0.880;2022-08-19T00:05:48;1010.7;;;17.75;45.3557
73306;BME280;61530;51.158;0.880;2022-08-19T00:06:52;1010.7;;;17.75;45.163
73306;BME280;61530;51.158;0.880;2022-08-19T00:07:55;1010.67;;;17.75;45.5764
73306;BME280;61530;51.158;0.880;2022-08-19T00:08:58;1010.68;;;17.8125;44.9782
73306;BME280;61530;51.158;0.880;2022-08-19T00:10:01;1010.7;;;17.75;45.4726
73306;BME280;61530;51.158;0.880;2022-08-19T00:11:04;1010.66;;;17.75;45.9022
73306;BME280;61530;51.158;0.880;2022-08-19T00:12:07;1010.65;;;17.8125;45.6231
73306;BME280;61530;51.158;0.880;2022-08-19T00:13:09;1010.65;;;17.8125;45.5192
73306;BME280;61530;51.158;0.880;2022-08-19T00:14:14;1010.62;;;17.875;46.1601
73306;BME280;61530;51.158;0.880;2022-08-19T00:15:18;1010.59;;;17.875;44.9612
73306;BME280;61530;51.158;0.880;2022-08-19T00:16:19;1010.6;;;17.875;45.7699
73306;BME280;61530;51.158;0.880;2022-08-19T00:17:22;1010.61;;;17.875;45.5614
73306;BME280;61530;51.158;0.880;2022-08-19T00:18:25;1010.58;;;17.9375;45.6087
73306;BME280;61530;51.158;0.880;2022-08-19T00:19:28;1010.56;;;17.9375;45.1843
73306;BME280;61530;51.158;0.880;2022-08-19T00:20:31;1010.55;;;17.9375;44.765
73306;BME280;61530;51.158;0.880;2022-08-19T00:21:34;1010.55;;;17.9375;44.7357
73306;BME280;61530;51.158;0.880;2022-08-19T00:22:36;1010.58;;;17.9375;44.4503
73306;BME280;61530;51.158;0.880;2022-08-19T00:23:42;1010.58;;;18.0625;44.8697
73306;BME280;61530;51.158;0.880;2022-08-19T00:24:44;1010.57;;;17.9375;45.1894
73306;BME280;61530;51.158;0.880;2022-08-19T00:25:47;1010.6;;;17.9375;45.3
73306;BME280;61530;51.158;0.880;2022-08-19T00:26:51;1010.62;;;17.875;45.2479
73306;BME280;61530;51.158;0.880;2022-08-19T00:27:53;1010.63;;;17.9375;45.3475
73306;BME280;61530;51.158;0.880;2022-08-19T00:28:56;1010.67;;;18.0;45.0677
73306;BME280;61530;51.158;0.880;2022-08-19T00:30:00;1010.68;;;18.0;45.2005
73306;BME280;61530;51.158;0.880;2022-08-19T00:31:03;1010.72;;;18.0;45.9866
73306;BME280;61530;51.158;0.880;2022-08-19T00:32:06;1010.73;;;18.0625;45.5568
73306;BME280;61530;51.158;0.880;2022-08-19T00:33:09;1010.74;;;18.0;45.2019
73306;BME280;61530;51.158;0.880;2022-08-19T00:34:12;1010.76;;;18.0;44.8585
73306;BME280;61530;51.158;0.880;2022-08-19T00:35:14;1010.78;;;17.9375;45.0096
73306;BME280;61530;51.158;0.880;2022-08-19T00:36:17;1010.82;;;17.9375;45.0857
73306;BME280;61530;51.158;0.880;2022-08-19T00:37:20;1010.82;;;17.9375;44.5617
73306;BME280;61530;51.158;0.880;2022-08-19T00:38:23;1010.81;;;18.0;44.8704
73306;BME280;61530;51.158;0.880;2022-08-19T00:39:26;1010.84;;;17.9375;44.9455
73306;BME280;61530;51.158;0.880;2022-08-19T00:40:29;1010.85;;;17.875;45.552
73306;BME280;61530;51.158;0.880;2022-08-19T00:41:32;1010.86;;;17.9375;45.179
73306;BME280;61530;51.158;0.880;2022-08-19T00:42:35;1010.86;;;17.9375;45.412
73306;BME280;61530;51.158;0.880;2022-08-19T00:43:38;1010.88;;;18.0625;45.663
73306;BME280;61530;51.158;0.880;2022-08-19T00:44:41;1010.89;;;18.0625;44.6261
73306;BME280;61530;51.158;0.880;2022-08-19T00:45:44;1010.89;;;18.125;45.6036
73306;BME280;61530;51.158;0.880;2022-08-19T00:46:49;1010.9;;;18.0625;44.9746
73306;BME280;61530;51.158;0.880;2022-08-19T00:47:50;1010.9;;;18.0;45.1791
73306;BME280;61530;51.158;0.880;2022-08-19T00:48:54;1010.87;;;18.0625;46.5829
73306;BME280;61530;51.158;0.880;2022-08-19T00:49:57;1010.88;;;18.125;45.9956
73306;BME280;61530;51.158;0.880;2022-08-19T00:51:00;1010.85;;;18.125;45.4245
73306;BME280;61530;51.158;0.880;2022-08-19T00:52:06;1010.84;;;18.125;46.164
73306;BME280;61530;51.158;0.880;2022-08-19T00:53:06;1010.86;;;18.1875;45.2329
73306;BME280;61530;51.158;0.880;2022-08-19T00:54:08;1010.85;;;18.1875;45.6055
73306;BME280;61530;51.158;0.880;2022-08-19T00:55:16;1010.85;;;18.1875;45.9323
73306;BME280;61530;51.158;0.880;2022-08-19T00:56:14;1010.85;;;18.25;45.1459
73306;BME280;61530;51.158;0.880;2022-08-19T00:57:20;1010.83;;;18.1875;45.4671
73306;BME280;61530;51.158;0.880;2022-08-19T00:58:24;1010.83;;;18.25;45.2738
73306;BME280;61530;51.158;0.880;2022-08-19T00:59:23;1010.8;;;18.25;45.3615
73306;BME280;61530;51.158;0.880;2022-08-19T01:00:27;1010.78;;;18.1875;44.6273
73306;BME280;61530;51.158;0.880;2022-08-19T01:01:29;1010.75;;;18.25;45.7749
73306;BME280;61530;51.158;0.880;2022-08-19T01:02:32;1010.74;;;18.1875;45.3674
73306;BME280;61530;51.158;0.880;2022-08-19T01:03:35;1010.71;;;18.1875;44.9191
73306;BME280;61530;51.158;0.880;2022-08-19T01:04:39;1010.68;;;18.1875;45.1865
73306;BME280;61530;51.158;0.880;2022-08-19T01:05:43;1010.65;;;18.1875;45.0817
73306;BME280;61530;51.158;0.880;2022-08-19T01:06:44;1010.67;;;18.125;45.082
73306;BME280;61530;51.158;0.880;2022-08-19T01:07:48;1010.65;;;18.25;44.6336
73306;BME280;61530;51.158;0.880;2022-08-19T01:08:54;1010.65;;;18.1875;44.9187
73306;BME280;61530;51.158;0.880;2022-08-19T01:09:56;1010.66;;;18.125;45.286
73306;BME280;61530;51.158;0.880;2022-08-19T01:10:59;1010.63;;;18.0625;45.1757
73306;BME280;61530;51.158;0.880;2022-08-19T01:12:02;1010.64;;;18.125;45.233
73306;BME280;61530;51.158;0.880;2022-08-19T01:13:05;1010.64;;;18.125;45.5414
73306;BME280;61530;51.158;0.880;2022-08-19T01:14:08;1010.72;;;18.1875;46.0367
73306;BME280;61530;51.158;0.880;2022-08-19T01:15:13;1010.77;;;18.1875;45.8743
73306;BME280;61530;51.158;0.880;2022-08-19T01:16:14;1010.77;;;18.25;45.9428
73306;BME280;61530;51.158;0.880;2022-08-19T01:17:17;1010.77;;;18.25;46.1753
73306;BME280;61530;51.158;0.880;2022-08-19T01:18:21;1010.78;;;18.3125;46.4421
73306;BME280;61530;51.158;0.880;2022-08-19T01:19:27;1010.74;;;18.3125;46.4196
73306;BME280;61530;51.158;0.880;2022-08-19T01:20:26;1010.73;;;18.375;46.2569
73306;BME280;61530;51.158;0.880;2022-08-19T01:21:45;1010.7;;;18.375;46.4373
73306;BME280;61530;51.158;0.880;2022-08-19T01:22:35;1010.72;;;18.375;46.3385
73306;BME280;61530;51.158;0.880;2022-08-19T01:23:35;1010.7;;;18.4375;46.2924
73306;BME280;61530;51.158;0.880;2022-08-19T01:24:37;1010.69;;;18.4375;46.6313
73306;BME280;61530;51.158;0.880;2022-08-19T01:25:45;1010.67;;;18.4375;46.6783
73306;BME280;61530;51.158;0.880;2022-08-19T01:26:46;1010.65;;;18.4375;46.4816
73306;BME280;61530;51.158;0.880;2022-08-19T01:27:48;1010.66;;;18.5;45.6606
73306;BME280;61530;51.158;0.880;2022-08-19T01:28:52;1010.68;;;18.4375;45.4972
73306;BME280;61530;51.158;0.880;2022-08-19T01:29:53;1010.68;;;18.4375;46.2137
73306;BME280;61530;51.158;0.880;2022-08-19T01:30:56;1010.68;;;18.375;45.1476
73306;BME280;61530;51.158;0.880;2022-08-19T01:31:59;1010.66;;;18.375;45.6947
73306;BME280;61530;51.158;0.880;2022-08-19T01:33:02;1010.65;;;18.375;45.9913
73306;BME280;61530;51.158;0.880;2022-08-19T01:34:05;1010.64;;;18.3125;46.0254
73306;BME280;61530;51.158;0.880;2022-08-19T01:35:08;1010.62;;;18.5;46.4226
73306;BME280;61530;51.158;0.880;2022-08-19T01:36:15;1010.59;;;18.375;47.1106
73306;BME280;61530;51.158;0.880;2022-08-19T01:37:14;1010.58;;;18.4375;45.4043
73306;BME280;61530;51.158;0.880;2022-08-19T01:38:22;1010.58;;;18.4375;45.2934
73306;BME280;61530;51.158;0.880;2022-08-19T01:39:22;1010.59;;;18.3125;45.3755
73306;BME280;61530;51.158;0.880;2022-08-19T01:40:26;1010.61;;;18.375;45.4219
73306;BME280;61530;51.158;0.880;2022-08-19T01:41:26;1010.62;;;18.3125;45.9123
73306;BME280;61530;51.158;0.880;2022-08-19T01:42:29;1010.6;;;18.375;45.7483
73306;BME280;61530;51.158;0.880;2022-08-19T01:43:32;1010.61;;;18.3125;45.4924
73306;BME280;61530;51.158;0.880;2022-08-19T01:44:34;1010.59;;;18.4375;46.2965
73306;BME280;61530;51.158;0.880;2022-08-19T01:45:37;1010.61;;;18.4375;45.8541
73306;BME280;61530;51.158;0.880;2022-08-19T01:46:41;1010.59;;;18.375;45.5335
73306;BME280;61530;51.158;0.880;2022-08-19T01:47:43;1010.62;;;18.4375;45.7436
73306;BME280;61530;51.158;0.880;2022-08-19T01:48:47;1010.63;;;18.375;44.5021
73306;BME280;61530;51.158;0.880;2022-08-19T01:49:50;1010.63;;;18.4375;45.8962
73306;BME280;61530;51.158;0.880;2022-08-19T01:50:52;1010.61;;;18.5;45.6324
73306;BME280;61530;51.158;0.880;2022-08-19T01:51:56;1010.6;;;18.4375;45.3413
73306;BME280;61530;51.158;0.880;2022-08-19T01:52:59;1010.63;;;18.375;45.7838
73306;BME280;61530;51.158;0.880;2022-08-19T01:54:02;1010.61;;;18.5;45.8185
73306;BME280;61530;51.158;0.880;2022-08-19T01:55:08;1010.63;;;18.4375;44.9915
73306;BME280;61530;51.158;0.880;2022-08-19T01:56:08;1010.64;;;18.4375;46.0176
73306;BME280;61530;51.158;0.880;2022-08-19T01:57:12;1010.65;;;18.5;46.379
73306;BME280;61530;51.158;0.880;2022-08-19T01:58:18;1010.64;;;18.5;45.587
73306;BME280;61530;51.158;0.880;2022-08-19T01:59:20;1010.64;;;18.4375;45.1663
73306;BME280;61530;51.158;0.880;2022-08-19T02:00:22;1010.61;;;18.4375;45.5393
73306;BME280;61530;51.158;0.880;2022-08-19T02:01:23;1010.61;;;18.4375;45.7615
73306;BME280;61530;51.158;0.880;2022-08-19T02:02:26;1010.6;;;18.4375;45.5108
73306;BME280;61530;51.158;0.880;2022-08-19T02:03:29;1010.6;;;18.5;45.7679
73306;BME280;61530;51.158;0.880;2022-08-19T02:04:32;1010.6;;;18.4375;45.7856
73306;BME280;61530;51.158;0.880;2022-08-19T02:05:35;1010.61;;;18.4375;45.4764
73306;BME280;61530;51.158;0.880;2022-08-19T02:06:38;1010.61;;;18.5;45.4418
73306;BME280;61530;51.158;0.880;2022-08-19T02:07:41;1010.56;;;18.4375;45.0558
73306;BME280;61530;51.158;0.880;2022-08-19T02:08:44;1010.56;;;18.4375;45.7721
73306;BME280;61530;51.158;0.880;2022-08-19T02:09:47;1010.55;;;18.5;45.2946
73306;BME280;61530;51.158;0.880;2022-08-19T02:10:50;1010.53;;;18.5;46.0452
73306;BME280;61530;51.158;0.880;2022-08-19T02:11:53;1010.56;;;18.4375;46.466
73306;BME280;61530;51.158;0.880;2022-08-19T02:12:56;1010.51;;;18.4375;45.8836
73306;BME280;61530;51.158;0.880;2022-08-19T02:14:00;1010.5;;;18.4375;45.7495
73306;BME280;61530;51.158;0.880;2022-08-19T02:15:04;1010.48;;;18.4375;45.9009
73306;BME280;61530;51.158;0.880;2022-08-19T02:16:07;1010.49;;;18.5;45.8961
73306;BME280;61530;51.158;0.880;2022-08-19T02:17:10;1010.48;;;18.5;46.0766
73306;BME280;61530;51.158;0.880;2022-08-19T02:18:13;1010.47;;;18.4375;45.9067
73306;BME280;61530;51.158;0.880;2022-08-19T02:19:16;1010.46;;;18.375;46.024
73306;BME280;61530;51.158;0.880;2022-08-19T02:20:21;1010.48;;;18.5;45.9428
73306;BME280;61530;51.158;0.880;2022-08-19T02:21:27;1010.44;;;18.5;46.0
73306;BME280;61530;51.158;0.880;2022-08-19T02:22:29;1010.47;;;18.5;46.9554
73306;BME280;61530;51.158;0.880;2022-08-19T02:23:32;1010.5;;;18.5;46.0821
73306;BME280;61530;51.158;0.880;2022-08-19T02:24:35;1010.5;;;18.4375;46.2623
73306;BME280;61530;51.158;0.880;2022-08-19T02:25:38;1010.54;;;18.5;46.1581
73306;BME280;61530;51.158;0.880;2022-08-19T02:26:41;1010.55;;;18.4375;45.7096
73306;BME280;61530;51.158;0.880;2022-08-19T02:27:44;1010.56;;;18.5;45.4942
73306;BME280;61530;51.158;0.880;2022-08-19T02:28:47;1010.56;;;18.5;45.4711
73306;BME280;61530;51.158;0.880;2022-08-19T02:29:51;1010.57;;;18.4375;44.9112
73306;BME280;61530;51.158;0.880;2022-08-19T02:30:53;1010.53;;;18.375;46.146
73306;BME280;61530;51.158;0.880;2022-08-19T02:31:56;1010.52;;;18.4375;45.5747
73306;BME280;61530;51.158;0.880;2022-08-19T02:33:01;1010.52;;;18.375;46.2216
73306;BME280;61530;51.158;0.880;2022-08-19T02:34:04;1010.51;;;18.4375;46.093
73306;BME280;61530;51.158;0.880;2022-08-19T02:35:08;1010.5;;;18.375;46.5422
73306;BME280;61530;51.158;0.880;2022-08-19T02:36:12;1010.5;;;18.375;46.5304
73306;BME280;61530;51.158;0.880;2022-08-19T02:37:13;1010.48;;;18.375;45.8258
73306;BME280;61530;51.158;0.880;2022-08-19T02:38:16;1010.5;;;18.375;45.9492
73306;BME280;61530;51.158;0.880;2022-08-19T02:39:19;1010.5;;;18.375;46.1994
73306;BME280;61530;51.158;0.880;2022-08-19T02:40:23;1010.51;;;18.4375;46.0598
73306;BME280;61530;51.158;0.880;2022-08-19T02:41:29;1010.53;;;18.5;46.0726
73306;BME280;61530;51.158;0.880;2022-08-19T02:42:29;1010.54;;;18.5;46.8574
73306;BME280;61530;51.158;0.880;2022-08-19T02:43:33;1010.56;;;18.4375;46.2174
73306;BME280;61530;51.158;0.880;2022-08-19T02:44:36;1010.57;;;18.5625;46.0078
73306;BME280;61530;51.158;0.880;2022-08-19T02:45:39;1010.58;;;18.5;46.1949
73306;BME280;61530;51.158;0.880;2022-08-19T02:46:42;1010.59;;;18.5;46.1831
73306;BME280;61530;51.158;0.880;2022-08-19T02:47:45;1010.59;;;18.5;46.2771
73306;BME280;61530;51.158;0.880;2022-08-19T02:48:48;1010.59;;;18.5625;45.8517
73306;BME280;61530;51.158;0.880;2022-08-19T02:49:51;1010.58;;;18.5;45.3496
73306;BME280;61530;51.158;0.880;2022-08-19T02:50:54;1010.6;;;18.5;45.9092
73306;BME280;61530;51.158;0.880;2022-08-19T02:51:57;1010.58;;;18.5;45.8684
73306;BME280;61530;51.158;0.880;2022-08-19T02:53:00;1010.59;;;18.5;45.8803
73306;BME280;61530;51.158;0.880;2022-08-19T02:54:04;1010.59;;;18.5625;45.0698
73306;BME280;61530;51.158;0.880;2022-08-19T02:55:07;1010.59;;;18.5625;45.8277
73306;BME280;61530;51.158;0.880;2022-08-19T02:56:09;1010.59;;;18.5625;45.0755
73306;BME280;61530;51.158;0.880;2022-08-19T02:57:12;1010.59;;;18.5625;45.7174
73306;BME280;61530;51.158;0.880;2022-08-19T02:58:16;1010.59;;;18.5625;45.7294
73306;BME280;61530;51.158;0.880;2022-08-19T02:59:18;1010.58;;;18.5625;45.5543
73306;BME280;61530;51.158;0.880;2022-08-19T03:00:21;1010.54;;;18.5625;46.2175
73306;BME280;61530;51.158;0.880;2022-08-19T03:01:27;1010.55;;;18.5625;45.9846
73306;BME280;61530;51.158;0.880;2022-08-19T03:02:27;1010.57;;;18.5;45.8334
73306;BME280;61530;51.158;0.880;2022-08-19T03:03:30;1010.56;;;18.5;46.3806
73306;BME280;61530;51.158;0.880;2022-08-19T03:04:33;1010.55;;;18.5625;46.888
73306;BME280;61530;51.158;0.880;2022-08-19T03:05:36;1010.57;;;18.5625;46.4394
73306;BME280;61530;51.158;0.880;2022-08-19T03:06:42;1010.56;;;18.5;46.31
73306;BME280;61530;51.158;0.880;2022-08-19T03:07:42;1010.57;;;18.5;46.0776
73306;BME280;61530;51.158;0.880;2022-08-19T03:08:46;1010.56;;;18.5;46.223
73306;BME280;61530;51.158;0.880;2022-08-19T03:09:48;1010.57;;;18.5;46.5028
73306;BME280;61530;51.158;0.880;2022-08-19T03:10:51;1010.58;;;18.5;46.0835
73306;BME280;61530;51.158;0.880;2022-08-19T03:11:54;1010.62;;;18.4375;46.4103
73306;BME280;61530;51.158;0.880;2022-08-19T03:12:57;1010.6;;;18.4375;45.6459
73306;BME280;61530;51.158;0.880;2022-08-19T03:14:02;1010.61;;;18.5;45.8972
73306;BME280;61530;51.158;0.880;2022-08-19T03:15:05;1010.57;;;18.5;46.0432
73306;BME280;61530;51.158;0.880;2022-08-19T03:16:06;1010.53;;;18.4375;46.2399
73306;BME280;61530;51.158;0.880;2022-08-19T03:17:09;1010.53;;;18.375;46.3047
73306;BME280;61530;51.158;0.880;2022-08-19T03:18:13;1010.52;;;18.375;46.1119
73306;BME280;61530;51.158;0.880;2022-08-19T03:19:18;1010.51;;;18.4375;46.9279
73306;BME280;61530;51.158;0.880;2022-08-19T03:20:18;1010.47;;;18.4375;46.9446
73306;BME280;61530;51.158;0.880;2022-08-19T03:21:23;1010.46;;;18.5;46.526
73306;BME280;61530;51.158;0.880;2022-08-19T03:22:24;1010.46;;;18.5625;46.3573
73306;BME280;61530;51.158;0.880;2022-08-19T03:23:27;1010.45;;;18.5;45.4364
73306;BME280;61530;51.158;0.880;2022-08-19T03:24:31;1010.45;;;18.5;46.4624
73306;BME280;61530;51.158;0.880;2022-08-19T03:25:37;1010.41;;;18.5;46.4216
73306;BME280;61530;51.158;0.880;2022-08-19T03:26:39;1010.38;;;18.375;45.8794
73306;BME280;61530;51.158;0.880;2022-08-19T03:27:40;1010.37;;;18.5;46.1999
73306;BME280;61530;51.158;0.880;2022-08-19T03:28:44;1010.39;;;18.4375;45.3832
73306;BME280;61530;51.158;0.880;2022-08-19T03:29:46;1010.4;;;18.375;46.3278
73306;BME280;61530;51.158;0.880;2022-08-19T03:30:59;1010.41;;;18.375;45.8953
73306;BME280;61530;51.158;0.880;2022-08-19T03:31:52;1010.38;;;18.3125;46.5126
73306;BME280;61530;51.158;0.880;2022-08-19T03:32:55;1010.38;;;18.3125;46.5881
73306;BME280;61530;51.158;0.880;2022-08-19T03:33:58;1010.41;;;18.375;46.6938
73306;BME280;61530;51.158;0.880;2022-08-19T03:35:01;1010.39;;;18.3125;46.7984
73306;BME280;61530;51.158;0.880;2022-08-19T03:36:07;1010.41;;;18.3125;46.5774
73306;BME280;61530;51.158;0.880;2022-08-19T03:37:09;1010.39;;;18.3125;46.5077
73306;BME280;61530;51.158;0.880;2022-08-19T03:38:10;1010.4;;;18.3125;46.1875
73306;BME280;61530;51.158;0.880;2022-08-19T03:39:14;1010.4;;;18.3125;46.7533
73306;BME280;61530;51.158;0.880;2022-08-19T03:40:16;1010.39;;;18.3125;46.281
73306;BME280;61530;51.158;0.880;2022-08-19T03:41:24;1010.43;;;18.3125;45.4585
73306;BME280;61530;51.158;0.880;2022-08-19T03:42:22;1010.41;;;18.25;46.8041
73306;BME280;61530;51.158;0.880;2022-08-19T03:43:25;1010.41;;;18.3125;46.3446
73306;BME280;61530;51.158;0.880;2022-08-19T03:44:31;1010.44;;;18.3125;46.8336
73306;BME280;61530;51.158;0.880;2022-08-19T03:45:35;1010.43;;;18.3125;46.6757
73306;BME280;61530;51.158;0.880;2022-08-19T03:46:40;1010.46;;;18.3125;45.7264
73306;BME280;61530;51.158;0.880;2022-08-19T03:47:43;1010.44;;;18.3125;46.7806
73306;BME280;61530;51.158;0.880;2022-08-19T03:48:48;1010.44;;;18.375;46.6065
73306;BME280;61530;51.158;0.880;2022-08-19T03:49:49;1010.43;;;18.375;46.2982
73306;BME280;61530;51.158;0.880;2022-08-19T03:50:52;1010.44;;;18.375;46.526
73306;BME280;61530;51.158;0.880;2022-08-19T03:51:57;1010.45;;;18.375;45.721
73306;BME280;61530;51.158;0.880;2022-08-19T03:52:58;1010.42;;;18.4375;46.9031
73306;BME280;61530;51.158;0.880;2022-08-19T03:54:04;1010.44;;;18.4375;46.6938
73306;BME280;61530;51.158;0.880;2022-08-19T03:55:05;1010.43;;;18.4375;46.647
73306;BME280;61530;51.158;0.880;2022-08-19T03:56:09;1010.47;;;18.375;46.5718
73306;BME280;61530;51.158;0.880;2022-08-19T03:57:10;1010.48;;;18.375;46.4851
73306;BME280;61530;51.158;0.880;2022-08-19T03:58:13;1010.45;;;18.375;46.6128
73306;BME280;61530;51.158;0.880;2022-08-19T03:59:19;1010.44;;;18.375;46.1354
73306;BME280;61530;51.158;0.880;2022-08-19T04:00:19;1010.42;;;18.4375;46.2006
73306;BME280;61530;51.158;0.880;2022-08-19T04:01:24;1010.37;;;18.5;46.3921
73306;BME280;61530;51.158;0.880;2022-08-19T04:02:25;1010.37;;;18.4375;46.5027
73306;BME280;61530;51.158;0.880;2022-08-19T04:03:28;1010.32;;;18.5;46.4509
73306;BME280;61530;51.158;0.880;2022-08-19T04:04:31;1010.32;;;18.5;46.5502
73306;BME280;61530;51.158;0.880;2022-08-19T04:05:36;1010.28;;;18.4375;46.8701
73306;BME280;61530;51.158;0.880;2022-08-19T04:06:40;1010.29;;;18.5;46.5328
73306;BME280;61530;51.158;0.880;2022-08-19T04:07:42;1010.27;;;18.5;46.7287
73306;BME280;61530;51.158;0.880;2022-08-19T04:08:47;1010.28;;;18.5;46.8685
73306;BME280;61530;51.158;0.880;2022-08-19T04:09:48;1010.29;;;18.5;46.5432
73306;BME280;61530;51.158;0.880;2022-08-19T04:10:51;1010.33;;;18.5;46.4968
73306;BME280;61530;51.158;0.880;2022-08-19T04:11:57;1010.33;;;18.4375;46.4037
73306;BME280;61530;51.158;0.880;2022-08-19T04:12:57;1010.36;;;18.5;46.6713
73306;BME280;61530;51.158;0.880;2022-08-19T04:14:02;1010.36;;;18.4375;46.7355
73306;BME280;61530;51.158;0.880;2022-08-19T04:15:04;1010.34;;;18.4375;47.3004
73306;BME280;61530;51.158;0.880;2022-08-19T04:16:07;1010.35;;;18.4375;46.2866
73306;BME280;61530;51.158;0.880;2022-08-19T04:17:09;1010.35;;;18.375;45.5325
73306;BME280;61530;51.158;0.880;2022-08-19T04:18:13;1010.35;;;18.3125;47.0829
73306;BME280;61530;51.158;0.880;2022-08-19T04:19:17;1010.36;;;18.375;46.9502
73306;BME280;61530;51.158;0.880;2022-08-19T04:20:19;1010.38;;;18.375;47.0263
73306;BME280;61530;51.158;0.880;2022-08-19T04:21:24;1010.38;;;18.4375;46.5892
73306;BME280;61530;51.158;0.880;2022-08-19T04:22:25;1010.39;;;18.375;46.4847
73306;BME280;61530;51.158;0.880;2022-08-19T04:23:28;1010.37;;;18.4375;47.0145
73306;BME280;61530;51.158;0.880;2022-08-19T04:24:31;1010.39;;;18.375;46.5544
73306;BME280;61530;51.158;0.880;2022-08-19T04:25:37;1010.4;;;18.375;46.7001
73306;BME280;61530;51.158;0.880;2022-08-19T04:26:37;1010.37;;;18.375;46.8862
73306;BME280;61530;51.158;0.880;2022-08-19T04:27:40;1010.38;;;18.375;46.6713
73306;BME280;61530;51.158;0.880;2022-08-19T04:28:43;1010.39;;;18.375;46.8457
73306;BME280;61530;51.158;0.880;2022-08-19T04:29:46;1010.42;;;18.375;46.5489
73306;BME280;61530;51.158;0.880;2022-08-19T04:30:51;1010.39;;;18.4375;46.3679
73306;BME280;61530;51.158;0.880;2022-08-19T04:31:53;1010.41;;;18.375;46.6361
73306;BME280;61530;51.158;0.880;2022-08-19T04:32:55;1010.41;;;18.375;47.4803
73306;BME280;61530;51.158;0.880;2022-08-19T04:33:59;1010.44;;;18.375;46.857
73306;BME280;61530;51.158;0.880;2022-08-19T04:35:01;1010.45;;;18.375;47.4163
73306;BME280;61530;51.158;0.880;2022-08-19T04:36:04;1010.47;;;18.375;46.8691
73306;BME280;61530;51.158;0.880;2022-08-19T04:37:07;1010.43;;;18.4375;47.3047
73306;BME280;61530;51.158;0.880;2022-08-19T04:38:10;1010.44;;;18.3125;46.2045
73306;BME280;61530;51.158;0.880;2022-08-19T04:39:15;1010.46;;;18.375;47.2373
73306;BME280;61530;51.158;0.880;2022-08-19T04:40:16;1010.48;;;18.4375;46.6135
73306;BME280;61530;51.158;0.880;2022-08-19T04:41:19;1010.5;;;18.5;46.766
73306;BME280;61530;51.158;0.880;2022-08-19T04:42:22;1010.46;;;18.5;47.1014
73306;BME280;61530;51.158;0.880;2022-08-19T04:43:25;1010.46;;;18.5;47.3698
73306;BME280;61530;51.158;0.880;2022-08-19T04:44:29;1010.48;;;18.5625;47.3886
73306;BME280;61530;51.158;0.880;2022-08-19T04:45:31;1010.48;;;18.5;46.8058
73306;BME280;61530;51.158;0.880;2022-08-19T04:46:34;1010.49;;;18.5625;47.3233
73306;BME280;61530;51.158;0.880;2022-08-19T04:47:37;1010.49;;;18.5625;47.3927
73306;BME280;61530;51.158;0.880;2022-08-19T13:44:11;1011.34;;;19.5;48.3886
73306;BME280;61530;51.158;0.880;2022-08-19T13:45:11;1011.34;;;19.5625;48.9094
73306;BME280;61530;51.158;0.880;2022-08-19T13:46:12;1011.37;;;19.5625;48.6596
73306;BME280;61530;51.158;0.880;2022-08-19T13:47:12;1011.34;;;19.5625;48.0694
73306;BME280;61530;51.158;0.880;2022-08-19T13:48:13;1011.37;;;19.5625;48.7401
73306;BME280;61530;51.158;0.880;2022-08-19T13:49:14;1011.39;;;19.5;48.8811
73306;BME280;61530;51.158;0.880;2022-08-19T13:50:16;1011.37;;;19.5625;48.4718
73306;BME280;61530;51.158;0.880;2022-08-19T13:51:15;1011.38;;;19.5625;48.8042
73306;BME280;61530;51.158;0.880;2022-08-19T13:52:15;1011.39;;;19.5625;48.5228
73306;BME280;61530;51.158;0.880;2022-08-19T13:53:17;1011.4;;;19.5625;48.3938
73306;BME280;61530;51.158;0.880;2022-08-19T13:54:17;1011.36;;;19.5625;48.196
73306;BME280;61530;51.158;0.880;2022-08-19T13:55:18;1011.35;;;19.5625;49.3578
73306;BME280;61530;51.158;0.880;2022-08-19T13:56:19;1011.37;;;19.5625;49.2126
73306;BME280;61530;51.158;0.880;2022-08-19T13:57:19;1011.39;;;19.625;48.4844
73306;BME280;61530;51.158;0.880;2022-08-19T13:58:20;1011.41;;;19.625;48.5252
73306;BME280;61530;51.158;0.880;2022-08-19T13:59:20;1011.39;;;19.6875;49.0421
73306;BME280;61530;51.158;0.880;2022-08-19T14:00:24;1011.39;;;19.6875;48.6492
73306;BME280;61530;51.158;0.880;2022-08-19T14:01:23;1011.37;;;19.625;48.1513
73306;BME280;61530;51.158;0.880;2022-08-19T14:02:22;1011.34;;;19.625;48.7121
73306;BME280;61530;51.158;0.880;2022-08-19T14:03:23;1011.31;;;19.6875;48.5202
73306;BME280;61530;51.158;0.880;2022-08-19T14:04:26;1011.31;;;19.6875;49.0346
73306;BME280;61530;51.158;0.880;2022-08-19T14:05:28;1011.32;;;19.6875;48.6031
73306;BME280;61530;51.158;0.880;2022-08-19T14:06:27;1011.32;;;19.6875;49.0017
73306;BME280;61530;51.158;0.880;2022-08-19T14:07:28;1011.33;;;19.6875;49.2831
73306;BME280;61530;51.158;0.880;2022-08-19T14:08:29;1011.36;;;19.75;48.0214
73306;BME280;61530;51.158;0.880;2022-08-19T14:09:29;1011.32;;;19.75;48.7919
73306;BME280;61530;51.158;0.880;2022-08-19T14:10:30;1011.34;;;19.75;48.6817
73306;BME280;61530;51.158;0.880;2022-08-19T14:11:30;1011.35;;;19.8125;48.1211
73306;BME280;61530;51.158;0.880;2022-08-19T14:12:31;1011.31;;;19.75;47.4203
73306;BME280;61530;51.158;0.880;2022-08-19T14:13:31;1011.32;;;19.75;48.5947
73306;BME280;61530;51.158;0.880;2022-08-19T14:14:32;1011.3;;;19.8125;47.5122
73306;BME280;61530;51.158;0.880;2022-08-19T14:15:33;1011.28;;;19.75;47.3433
73306;BME280;61530;51.158;0.880;2022-08-19T14:16:35;1011.23;;;19.8125;46.6339
73306;BME280;61530;51.158;0.880;2022-08-19T14:17:37;1011.2;;;19.75;47.7159
73306;BME280;61530;51.158;0.880;2022-08-19T14:18:36;1011.2;;;19.75;45.9134
73306;BME280;61530;51.158;0.880;2022-08-19T14:19:37;1011.17;;;19.75;48.0752
73306;BME280;61530;51.158;0.880;2022-08-19T14:20:37;1011.16;;;19.6875;46.1827